Terminal Aerodrome Forecast
Issued by NWS

Home | Current Version | Previous Version | Text Only | Print | Product List | Glossary On
Versions: 1 2 3 4 5 6 7 8 9 10 11 12 13 14 15 16
000
FTAK31 PAFA 260526
TAFAOR
TAF
PAOR 260526Z 2606/2706 VRB04KT 3SM -SN BR SCT020 BKN035 OVC100
     FM261500 VRB04KT 1SM BR BKN007 OVC015
     FM261900 VRB04KT 6SM BR OVC015
     FM270000 VRB04KT P6SM SCT015 BKN050=

USA.gov is the U.S. government's official web portal to all federal, state and local government web resources and services.